EST,Max TemperatureF,Mean TemperatureF,Min TemperatureF,Max Dew PointF,MeanDew PointF,Min DewpointF,Max Humidity, Mean Humidity, Min Humidity, Max Sea Level PressureIn, Mean Sea Level PressureIn, Min Sea Level PressureIn, Max VisibilityMiles, Mean VisibilityMiles, Min VisibilityMiles, Max Wind SpeedMPH, Mean Wind SpeedMPH, Max Gust SpeedMPH,PrecipitationIn, CloudCover, Events, WindDirDegrees
2013-2-1,33,27,21,13,7,2,50,40,29,30.13,29.85,29.65,10,10,10,23,13,30,0.00,3,,276
2013-2-2,31,25,19,15,8,4,56,46,36,30.27,30.16,30.07,10,10,10,18,10,24,0.00,4,,245
2013-2-3,34,28,21,20,17,15,77,64,51,30.06,29.88,29.74,10,10,7,14,7,17,T,7,Snow,353
2013-2-4,33,27,21,16,8,4,75,53,31,29.97,29.84,29.75,10,10,10,23,10,31,0.00,3,,277
2013-2-5,26,24,22,23,16,7,88,69,50,30.04,29.97,29.94,10,7,1,7,4,7,0.03,8,Snow,44
2013-2-6,40,33,26,27,19,2,85,58,31,30.31,30.04,29.92,10,8,3,17,8,23,T,5,Snow,308
2013-2-7,33,26,19,13,5,2,56,41,26,30.53,30.46,30.32,10,10,10,14,6,18,0.00,5,,5
2013-2-8,33,27,21,32,28,14,100,83,65,30.44,29.91,29.47,10,2,0,46,17,63,1.10,7,Fog-Snow-Thunderstorm,39
2013-2-9,25,21,16,19,14,2,100,76,52,30.21,29.78,29.47,10,4,0,36,18,48,0.41,6,Fog-Snow,336
2013-2-10,38,26,13,45,9,-2,92,56,20,30.41,30.35,30.22,10,10,6,13,6,20,0.00,1,,296
2013-2-11,46,31,15,45,37,18,100,91,81,30.36,29.87,28.98,10,4,0,17,6,25,0.38,8,Fog-Rain,202
2013-2-12,44,37,29,39,28,23,96,73,49,29.91,29.75,29.63,10,10,10,23,8,30,0.00,4,,278
2013-2-13,41,35,28,27,23,19,75,62,48,29.89,29.82,29.69,10,10,10,14,5,16,0.00,3,,221
2013-2-14,44,35,26,30,25,17,92,64,36,30.02,29.83,29.71,10,8,1,15,6,18,0.09,4,Snow,340
2013-2-15,48,37,25,35,31,24,100,79,58,30.04,29.99,29.94,10,6,2,17,6,23,0.00,3,Fog,186
2013-2-16,35,33,31,34,31,20,100,82,63,29.95,29.87,29.66,10,3,0,20,9,26,0.03,8,Fog-Snow,354
2013-2-17,31,24,16,23,13,-1,92,62,32,29.71,29.54,29.41,10,4,0,35,20,44,0.13,7,Fog-Snow,322
2013-2-18,30,23,15,3,0,-2,51,39,27,30.19,30.02,29.75,10,10,10,28,14,36,0.00,1,,290
2013-2-19,47,33,18,45,30,5,100,70,40,30.19,29.89,29.60,10,8,2,22,6,30,0.62,6,Rain,193
2013-2-20,43,35,26,38,18,8,86,63,40,29.82,29.69,29.58,10,10,10,20,14,32,0.00,4,,281
2013-2-21,34,30,25,15,12,10,55,47,38,30.20,29.91,29.82,10,10,10,25,14,33,0.00,3,,297
2013-2-22,40,33,26,25,20,15,69,61,52,30.37,30.33,30.22,10,10,10,15,7,21,0.00,6,,26
2013-2-23,38,34,30,34,29,25,100,85,70,30.32,30.13,29.87,10,7,1,14,6,18,0.38,8,Rain-Snow,88
2013-2-24,38,35,32,36,33,30,100,91,82,29.89,29.76,29.66,10,4,1,23,13,30,0.34,8,Rain-Snow,356
2013-2-25,42,36,29,31,29,27,92,75,57,30.25,30.07,29.91,10,10,3,16,6,20,0.01,7,Snow,354
2013-2-26,44,39,34,32,29,24,89,69,49,30.33,30.26,30.12,10,10,10,13,5,13,T,7,,119
2013-2-27,44,40,36,43,39,32,100,88,76,30.10,29.75,29.58,10,4,1,23,11,35,1.39,8,Rain,61
2013-2-28,47,40,32,38,35,31,100,85,70,29.65,29.58,29.53,10,10,7,13,3,23,T,7,Rain,283